Time;durP1;ratioP1;P1;durP2;ratioP2;P2;SDS_P1;SDS_P2;PMS_P1;PMS_P2;Temp;Humidity;BMP_temperature;BMP_pressure;BME280_temperature;BME280_humidity;BME280_pressure;Samples;Min_cycle;Max_cycle;Signal;HPM_P1;HPM_P2
2023/01/12 00:01:20;;;;;;;;;;;7.50;99.90;;;;;;4938874;29;19934;-87
2023/01/12 00:03:46;;;;;;;;;;;7.50;99.90;;;;;;4939588;29;19990;-86
2023/01/12 00:06:13;;;;;;;;;;;7.50;99.90;;;;;;4939577;29;20288;-86
2023/01/12 00:08:38;;;;;;;;;;;7.40;99.90;;;;;;4939688;29;19927;-86
2023/01/12 00:11:04;;;;;;;;;;;7.30;99.90;;;;;;4923507;29;19989;-85
2023/01/12 00:13:30;;;;;;;;;;;7.30;99.90;;;;;;4939357;29;19926;-85
2023/01/12 00:18:44;;;;;;;;;;;7.40;99.90;;;;;;4939358;29;19978;-86
2023/01/12 00:21:09;;;;;;;;;;;7.40;99.90;;;;;;4938362;29;20346;-87
2023/01/12 00:23:35;;;;;;;;;;;7.30;99.90;;;;;;4939054;29;20377;-86
2023/01/12 00:26:01;;;;;;;;;;;7.30;99.90;;;;;;4923201;29;19984;-86
2023/01/12 00:28:26;;;;;;;;;;;7.30;99.90;;;;;;4939744;29;19930;-88
2023/01/12 00:30:52;;;;;;;;;;;7.30;99.90;;;;;;4938865;29;20097;-86
2023/01/12 00:33:18;;;;;;;;;;;7.30;99.90;;;;;;4938779;29;19931;-86
2023/01/12 00:35:44;;;;;;;;;;;7.30;99.90;;;;;;4923876;29;19926;-87
2023/01/12 00:38:10;;;;;;;;;;;7.40;99.90;;;;;;4955374;29;20306;-87
2023/01/12 00:40:35;;;;;;;;;;;7.60;99.90;;;;;;4938915;29;19926;-85
2023/01/12 00:45:49;;;;;;;;;;;7.30;99.90;;;;;;4939106;29;19934;-86
2023/01/12 00:48:14;;;;;;;;;;;7.30;99.90;;;;;;4923900;29;20212;-87
2023/01/12 00:50:40;;;;;;;;;;;7.20;99.90;;;;;;4938666;29;19926;-87
2023/01/12 00:53:05;;;;;;;;;;;7.20;99.90;;;;;;4938084;29;19927;-86
2023/01/12 00:55:31;;;;;;;;;;;7.60;99.90;;;;;;4938621;29;19933;-87
2023/01/12 00:57:57;;;;;;;;;;;8.00;99.90;;;;;;4923413;29;20350;-86
2023/01/12 01:00:22;;;;;;;;;;;7.20;99.90;;;;;;4922650;29;20025;-87
2023/01/12 01:02:48;;;;;;;;;;;7.20;99.90;;;;;;4939036;29;20020;-87
2023/01/12 01:05:14;;;;;;;;;;;7.20;99.90;;;;;;4922779;29;20117;-86
2023/01/12 01:07:39;;;;;;;;;;;7.20;99.90;;;;;;4906601;29;19932;-87
2023/01/12 01:10:05;;;;;;;;;;;7.30;99.90;;;;;;4938206;29;20014;-86
2023/01/12 01:12:31;;;;;;;;;;;7.30;99.90;;;;;;4906646;29;19926;-85
2023/01/12 01:14:57;;;;;;;;;;;7.30;99.90;;;;;;4922338;29;19962;-86
2023/01/12 01:17:22;;;;;;;;;;;7.40;99.90;;;;;;4922675;29;19973;-86
2023/01/12 01:19:48;;;;;;;;;;;7.30;99.90;;;;;;4938370;29;20112;-87
2023/01/12 01:22:14;;;;;;;;;;;7.30;99.90;;;;;;4938101;29;19926;-86
2023/01/12 01:24:40;;;;;;;;;;;7.30;99.90;;;;;;4922484;29;19979;-85
2023/01/12 01:27:05;;;;;;;;;;;7.30;99.90;;;;;;4922294;29;19930;-85
2023/01/12 01:29:31;;;;;;;;;;;7.20;99.90;;;;;;4922428;29;19926;-85
2023/01/12 01:31:56;;;;;;;;;;;7.70;99.90;;;;;;4937461;29;19930;-85
2023/01/12 01:34:25;;;;;;;;;;;7.10;99.90;;;;;;4941948;29;19970;-85
2023/01/12 01:36:50;;;;;;;;;;;7.00;99.90;;;;;;4941882;29;19926;-86
2023/01/12 01:39:16;;;;;;;;;;;7.00;99.90;;;;;;4942516;29;19930;-86
2023/01/12 01:41:41;;;;;;;;;;;6.90;99.90;;;;;;4942573;29;19970;-86
2023/01/12 01:44:26;;;;;;;;;;;6.90;99.90;;;;;;4926092;29;19978;-86
2023/01/12 01:46:54;;;;;;;;;;;6.90;99.90;;;;;;4941913;29;19926;-86
2023/01/12 01:49:25;;;;;;;;;;;7.00;99.90;;;;;;4942038;29;19991;-87
2023/01/12 01:51:53;;;;;;;;;;;6.90;99.90;;;;;;4942243;29;20382;-86
2023/01/12 01:54:19;;;;;;;;;;;7.50;99.90;;;;;;4942313;29;19927;-86
2023/01/12 01:56:44;;;;;;;;;;;7.00;99.90;;;;;;4941794;29;19930;-85
2023/01/12 01:59:13;;;;;;;;;;;7.00;99.90;;;;;;4942367;29;20327;-85
2023/01/12 02:01:39;;;;;;;;;;;7.10;99.90;;;;;;4941614;29;19978;-85
2023/01/12 02:04:05;;;;;;;;;;;7.30;99.90;;;;;;4941629;29;20339;-87
2023/01/12 02:06:31;;;;;;;;;;;7.10;99.90;;;;;;4941271;29;20017;-86
2023/01/12 02:08:59;;;;;;;;;;;7.30;99.90;;;;;;4942252;29;20033;-85
2023/01/12 02:17:03;;;;;;;;;;;7.30;99.90;;;;;;4941675;29;20033;-85
2023/01/12 02:19:29;;;;;;;;;;;7.30;99.90;;;;;;4941580;29;20378;-85
2023/01/12 02:22:11;;;;;;;;;;;7.30;99.90;;;;;;4940866;29;19926;-86
2023/01/12 02:24:39;;;;;;;;;;;7.40;99.90;;;;;;4941395;29;19931;-85
2023/01/12 02:27:29;;;;;;;;;;;7.40;99.90;;;;;;4941470;29;19927;-85
2023/01/12 02:29:55;;;;;;;;;;;7.40;99.90;;;;;;4941138;29;19930;-85
2023/01/12 02:32:20;;;;;;;;;;;7.40;99.90;;;;;;4922415;29;19927;-85
2023/01/12 02:34:55;;;;;;;;;;;7.40;99.90;;;;;;4922240;29;20102;-84
2023/01/12 02:37:27;;;;;;;;;;;7.50;99.90;;;;;;4921986;29;19956;-85
2023/01/12 02:40:05;;;;;;;;;;;7.50;99.90;;;;;;4906588;29;19927;-85
2023/01/12 02:42:43;;;;;;;;;;;7.50;99.90;;;;;;4922574;29;19934;-85
2023/01/12 02:45:22;;;;;;;;;;;7.50;99.90;;;;;;4921533;29;20249;-85
2023/01/12 02:48:06;;;;;;;;;;;7.50;99.90;;;;;;4921757;29;19926;-86
2023/01/12 02:50:34;;;;;;;;;;;7.50;99.90;;;;;;4921968;29;19934;-86
2023/01/12 02:53:05;;;;;;;;;;;7.50;99.90;;;;;;4905664;29;19949;-86
2023/01/12 02:55:31;;;;;;;;;;;7.50;99.90;;;;;;4905418;29;19933;-86
2023/01/12 02:57:57;;;;;;;;;;;7.50;99.90;;;;;;4921336;29;19934;-86
2023/01/12 03:00:23;;;;;;;;;;;7.50;99.90;;;;;;4921214;29;20261;-87
2023/01/12 03:02:49;;;;;;;;;;;7.50;99.90;;;;;;4921506;29;19927;-86
2023/01/12 03:05:15;;;;;;;;;;;7.50;99.90;;;;;;4921540;29;19926;-86
2023/01/12 03:07:44;;;;;;;;;;;7.50;99.90;;;;;;4889307;29;19933;-86
2023/01/12 03:10:19;;;;;;;;;;;7.50;99.90;;;;;;4905716;29;19927;-86
2023/01/12 03:12:45;;;;;;;;;;;7.50;99.90;;;;;;4921879;29;20275;-85
2023/01/12 03:15:12;;;;;;;;;;;7.50;99.90;;;;;;4921281;29;20006;-86
2023/01/12 03:17:40;;;;;;;;;;;7.50;99.90;;;;;;4921259;29;20383;-85
2023/01/12 03:20:09;;;;;;;;;;;7.60;99.90;;;;;;4921184;29;19926;-85
2023/01/12 03:22:36;;;;;;;;;;;7.60;99.90;;;;;;4905344;29;19926;-85
2023/01/12 03:25:08;;;;;;;;;;;7.60;99.90;;;;;;4905340;29;19926;-85
2023/01/12 03:27:38;;;;;;;;;;;7.60;99.90;;;;;;4921377;29;19998;-86
2023/01/12 03:30:11;;;;;;;;;;;7.60;99.90;;;;;;4922830;29;19927;-86
2023/01/12 03:32:37;;;;;;;;;;;7.60;99.90;;;;;;4939828;29;20413;-86
2023/01/12 03:35:04;;;;;;;;;;;7.60;99.90;;;;;;4940101;29;19991;-85
2023/01/12 03:37:31;;;;;;;;;;;7.60;99.90;;;;;;4939955;29;20384;-86
2023/01/12 03:39:59;;;;;;;;;;;8.10;99.90;;;;;;4939785;29;19985;-85
2023/01/12 03:42:26;;;;;;;;;;;8.30;99.90;;;;;;4939444;29;20021;-86
2023/01/12 03:44:55;;;;;;;;;;;7.70;99.90;;;;;;4939696;29;19926;-86
2023/01/12 03:47:23;;;;;;;;;;;7.70;99.90;;;;;;4939778;29;20278;-85
2023/01/12 03:49:54;;;;;;;;;;;7.70;99.90;;;;;;4939620;29;19926;-86
2023/01/12 03:52:21;;;;;;;;;;;7.70;99.90;;;;;;4938830;29;19927;-86
2023/01/12 03:54:48;;;;;;;;;;;7.80;99.90;;;;;;4923840;28;20335;-86
2023/01/12 03:57:15;;;;;;;;;;;7.80;99.90;;;;;;4939441;29;19959;-86
2023/01/12 03:59:41;;;;;;;;;;;7.80;99.90;;;;;;4940512;29;20263;-86
2023/01/12 04:02:07;;;;;;;;;;;7.90;99.90;;;;;;4939356;29;20029;-86
2023/01/12 04:04:32;;;;;;;;;;;7.90;99.90;;;;;;4956041;29;19972;-86
2023/01/12 04:06:59;;;;;;;;;;;7.90;99.90;;;;;;4939189;29;19933;-85
2023/01/12 04:09:24;;;;;;;;;;;7.90;99.90;;;;;;4939535;29;20326;-85
2023/01/12 04:14:35;;;;;;;;;;;7.90;99.90;;;;;;4939599;29;19933;-85
2023/01/12 04:17:00;;;;;;;;;;;7.90;99.90;;;;;;4939303;29;19933;-85
2023/01/12 04:19:26;;;;;;;;;;;7.90;99.90;;;;;;4938954;29;19942;-85
2023/01/12 04:24:36;;;;;;;;;;;8.20;99.90;;;;;;4939814;29;19927;-85
2023/01/12 04:27:01;;;;;;;;;;;7.70;99.90;;;;;;4939765;29;19933;-85
2023/01/12 04:29:27;;;;;;;;;;;7.90;99.90;;;;;;4954862;29;20263;-86
2023/01/12 04:31:52;;;;;;;;;;;7.80;99.90;;;;;;4954508;29;19974;-86
2023/01/12 04:34:18;;;;;;;;;;;7.90;99.90;;;;;;4939014;29;19942;-86
2023/01/12 04:36:44;;;;;;;;;;;7.90;99.90;;;;;;4954852;29;19926;-85
2023/01/12 04:39:09;;;;;;;;;;;7.90;99.90;;;;;;4939009;29;20010;-86
2023/01/12 04:41:35;;;;;;;;;;;7.90;99.90;;;;;;4939050;29;20017;-86
2023/01/12 04:44:00;;;;;;;;;;;7.90;99.90;;;;;;4938901;29;19926;-85
2023/01/12 04:46:26;;;;;;;;;;;8.10;99.90;;;;;;4939007;29;20354;-85
2023/01/12 04:48:52;;;;;;;;;;;7.90;99.90;;;;;;4938866;29;20025;-85
2023/01/12 04:51:17;;;;;;;;;;;8.00;99.90;;;;;;4938719;29;20352;-86
2023/01/12 04:53:43;;;;;;;;;;;7.80;99.90;;;;;;4938747;29;19933;-85
2023/01/12 04:56:08;;;;;;;;;;;7.80;99.90;;;;;;4954572;29;19930;-86
2023/01/12 04:58:34;;;;;;;;;;;7.80;99.90;;;;;;4938605;29;19933;-86
2023/01/12 05:01:06;;;;;;;;;;;7.80;99.90;;;;;;4954420;29;19926;-85
2023/01/12 05:03:32;;;;;;;;;;;7.80;99.90;;;;;;4939133;29;19933;-85
2023/01/12 05:05:58;;;;;;;;;;;7.90;99.90;;;;;;4938190;29;19931;-86
2023/01/12 05:11:07;;;;;;;;;;;7.80;99.90;;;;;;4939281;29;20046;-86
2023/01/12 05:13:33;;;;;;;;;;;7.70;99.90;;;;;;4954888;29;20010;-86
2023/01/12 05:16:09;;;;;;;;;;;7.70;99.90;;;;;;4938276;29;19933;-86
2023/01/12 05:18:35;;;;;;;;;;;7.70;99.90;;;;;;4938488;29;19930;-86
2023/01/12 05:21:00;;;;;;;;;;;7.70;99.90;;;;;;4923216;29;19941;-86
2023/01/12 05:23:26;;;;;;;;;;;7.70;99.90;;;;;;4938355;29;20299;-85
2023/01/12 05:25:51;;;;;;;;;;;7.70;99.90;;;;;;4954539;29;19931;-85
2023/01/12 05:28:17;;;;;;;;;;;7.70;99.90;;;;;;4938253;29;19927;-86
2023/01/12 05:30:43;;;;;;;;;;;7.70;99.90;;;;;;4937876;29;19926;-84
2023/01/12 05:33:14;;;;;;;;;;;8.10;99.90;;;;;;4938209;29;19933;-85
2023/01/12 05:35:40;;;;;;;;;;;7.70;99.90;;;;;;4938135;29;19933;-86
2023/01/12 05:38:05;;;;;;;;;;;7.60;99.90;;;;;;4938249;29;19927;-85
2023/01/12 05:40:31;;;;;;;;;;;7.60;99.90;;;;;;4922058;29;19953;-86
2023/01/12 05:45:41;;;;;;;;;;;7.60;99.90;;;;;;4938442;29;19934;-86
2023/01/12 05:48:08;;;;;;;;;;;7.60;99.90;;;;;;4938637;29;19931;-86
2023/01/12 05:50:34;;;;;;;;;;;7.60;99.90;;;;;;4923489;29;19955;-84
2023/01/12 05:52:59;;;;;;;;;;;7.60;99.90;;;;;;4938603;29;20282;-85
2023/01/12 05:55:25;;;;;;;;;;;7.60;99.90;;;;;;4938089;29;19935;-85
2023/01/12 05:57:50;;;;;;;;;;;7.60;99.90;;;;;;4937753;29;19958;-85
2023/01/12 06:00:16;;;;;;;;;;;7.60;99.90;;;;;;4938345;29;19931;-85
2023/01/12 06:02:42;;;;;;;;;;;7.60;99.90;;;;;;4938568;29;19926;-86
2023/01/12 06:05:08;;;;;;;;;;;7.70;99.90;;;;;;4938039;29;20327;-87
2023/01/12 06:07:34;;;;;;;;;;;7.60;99.90;;;;;;4937834;29;19927;-86
2023/01/12 06:09:59;;;;;;;;;;;8.10;99.90;;;;;;4937999;29;19933;-86
2023/01/12 06:15:09;;;;;;;;;;;7.70;99.90;;;;;;4938635;29;19926;-86
2023/01/12 06:17:35;;;;;;;;;;;7.70;99.90;;;;;;4937802;29;19927;-87
2023/01/12 06:20:00;;;;;;;;;;;7.70;99.90;;;;;;4941004;29;19926;-85
2023/01/12 06:22:26;;;;;;;;;;;7.70;99.90;;;;;;4941014;29;19977;-86
2023/01/12 06:24:53;;;;;;;;;;;7.80;99.90;;;;;;4942195;29;20363;-86
2023/01/12 06:27:19;;;;;;;;;;;7.80;99.90;;;;;;4941186;29;19933;-85
2023/01/12 06:29:44;;;;;;;;;;;7.80;99.90;;;;;;4941511;29;19942;-86
2023/01/12 06:32:10;;;;;;;;;;;7.80;99.90;;;;;;4940729;29;20389;-87
2023/01/12 06:34:36;;;;;;;;;;;7.90;99.90;;;;;;4941193;29;19926;-86
2023/01/12 06:37:01;;;;;;;;;;;7.90;99.90;;;;;;4940847;29;20001;-87
2023/01/12 06:39:28;;;;;;;;;;;8.50;99.90;;;;;;4941030;29;20017;-86
2023/01/12 06:44:38;;;;;;;;;;;8.00;99.90;;;;;;4942137;29;19934;-87
2023/01/12 06:47:03;;;;;;;;;;;8.00;99.90;;;;;;4941583;29;19927;-85
2023/01/12 06:49:29;;;;;;;;;;;8.00;99.90;;;;;;4957085;29;19927;-86
2023/01/12 06:51:55;;;;;;;;;;;8.10;99.90;;;;;;4940605;29;19993;-86
2023/01/12 06:54:20;;;;;;;;;;;8.20;99.90;;;;;;4940612;29;19927;-87
2023/01/12 06:56:46;;;;;;;;;;;8.10;99.90;;;;;;4940571;29;19931;-86
2023/01/12 06:59:11;;;;;;;;;;;8.20;99.90;;;;;;4940648;29;19982;-87
2023/01/12 07:01:39;;;;;;;;;;;8.20;99.90;;;;;;4941063;29;19926;-88
2023/01/12 07:04:05;;;;;;;;;;;8.20;99.90;;;;;;4940168;29;19926;-87
2023/01/12 07:06:33;;;;;;;;;;;8.30;99.90;;;;;;4939972;29;19933;-87
2023/01/12 07:08:59;;;;;;;;;;;8.40;99.90;;;;;;4940364;29;19933;-88
2023/01/12 07:11:25;;;;;;;;;;;8.40;99.90;;;;;;4940942;29;19930;-88
2023/01/12 07:13:50;;;;;;;;;;;8.40;99.90;;;;;;4941018;29;19927;-87
2023/01/12 07:16:16;;;;;;;;;;;8.50;99.90;;;;;;4940046;29;19934;-87
2023/01/12 07:18:41;;;;;;;;;;;8.50;99.90;;;;;;4940335;29;19931;-88
2023/01/12 07:21:08;;;;;;;;;;;8.60;99.90;;;;;;4940017;29;20009;-88
2023/01/12 07:23:34;;;;;;;;;;;8.70;99.90;;;;;;4939718;29;19926;-88
2023/01/12 07:25:59;;;;;;;;;;;8.70;99.90;;;;;;4940731;29;19982;-89
2023/01/12 07:28:25;;;;;;;;;;;8.70;99.90;;;;;;4940585;29;20256;-88
2023/01/12 07:30:51;;;;;;;;;;;8.80;99.90;;;;;;4938966;29;19927;-87
2023/01/12 07:33:16;;;;;;;;;;;8.80;99.90;;;;;;4939915;29;20032;-88
2023/01/12 07:35:42;;;;;;;;;;;8.80;99.90;;;;;;4939544;29;19927;-88
2023/01/12 07:38:09;;;;;;;;;;;8.80;99.90;;;;;;4940417;29;19979;-88
2023/01/12 07:40:34;;;;;;;;;;;8.90;99.90;;;;;;4908378;29;19977;-89
2023/01/12 07:43:01;;;;;;;;;;;8.90;99.90;;;;;;4923832;29;19988;-87
2023/01/12 07:45:28;;;;;;;;;;;9.00;99.90;;;;;;4939836;29;19931;-88
2023/01/12 07:47:54;;;;;;;;;;;8.90;99.90;;;;;;4939950;29;19931;-88
2023/01/12 07:50:23;;;;;;;;;;;9.00;99.90;;;;;;4939540;29;20452;-87
2023/01/12 07:52:49;;;;;;;;;;;9.10;99.90;;;;;;4923578;29;19933;-89
2023/01/12 07:55:18;;;;;;;;;;;9.10;99.90;;;;;;4939445;29;19927;-88
2023/01/12 07:57:56;;;;;;;;;;;9.10;99.90;;;;;;4923752;29;19933;-88
2023/01/12 08:00:22;;;;;;;;;;;9.20;99.90;;;;;;4955695;29;20033;-88
2023/01/12 08:02:48;;;;;;;;;;;9.40;99.90;;;;;;4923620;29;20030;-88
2023/01/12 08:05:14;;;;;;;;;;;9.20;99.90;;;;;;4923757;29;19926;-89
2023/01/12 08:07:40;;;;;;;;;;;9.40;99.90;;;;;;4939565;29;19932;-90
2023/01/12 08:10:05;;;;;;;;;;;9.30;99.90;;;;;;4923830;29;19927;-87
2023/01/12 08:12:31;;;;;;;;;;;9.40;99.90;;;;;;4939222;29;19933;-89
2023/01/12 08:14:59;;;;;;;;;;;9.00;99.90;;;;;;4939134;29;19930;-87
2023/01/12 08:17:25;;;;;;;;;;;10.00;99.90;;;;;;4923554;29;19934;-88
2023/01/12 08:20:06;;;;;;;;;;;9.50;99.90;;;;;;4939483;29;20017;-89
2023/01/12 08:22:40;;;;;;;;;;;9.50;99.90;;;;;;4939209;29;19982;-87
2023/01/12 08:25:09;;;;;;;;;;;9.60;99.90;;;;;;4939840;29;19926;-89
2023/01/12 08:27:36;;;;;;;;;;;9.60;99.90;;;;;;4937665;29;19927;-88
2023/01/12 08:30:06;;;;;;;;;;;9.60;99.90;;;;;;4939679;29;19934;-87
2023/01/12 08:32:33;;;;;;;;;;;9.60;99.90;;;;;;4922554;29;19970;-89
2023/01/12 08:34:59;;;;;;;;;;;9.60;99.90;;;;;;4923893;29;20336;-88
2023/01/12 08:37:27;;;;;;;;;;;9.60;99.90;;;;;;4938948;29;19934;-88
2023/01/12 08:39:53;;;;;;;;;;;9.70;99.90;;;;;;4938636;29;19926;-89
2023/01/12 08:42:22;;;;;;;;;;;9.70;99.90;;;;;;4937820;29;19949;-88
2023/01/12 08:44:50;;;;;;;;;;;9.80;99.90;;;;;;4938613;29;19927;-88
2023/01/12 08:47:20;;;;;;;;;;;9.80;99.90;;;;;;4923321;29;20116;-87
2023/01/12 08:49:45;;;;;;;;;;;9.80;99.90;;;;;;4938503;29;19926;-88
2023/01/12 08:52:11;;;;;;;;;;;9.80;99.90;;;;;;4938262;29;20414;-88
2023/01/12 08:54:40;;;;;;;;;;;9.80;99.90;;;;;;4906923;29;20393;-89
2023/01/12 08:57:06;;;;;;;;;;;9.80;99.90;;;;;;4923083;29;20283;-87
2023/01/12 08:59:31;;;;;;;;;;;9.90;99.90;;;;;;4938486;29;19934;-90
2023/01/12 09:01:57;;;;;;;;;;;9.90;99.90;;;;;;4937918;29;19937;-89
2023/01/12 09:04:23;;;;;;;;;;;9.90;99.90;;;;;;4938605;29;19933;-89
2023/01/12 09:06:48;;;;;;;;;;;9.90;99.90;;;;;;4923238;29;19934;-88
2023/01/12 09:09:18;;;;;;;;;;;9.90;99.90;;;;;;4938679;29;20405;-90
2023/01/12 09:11:44;;;;;;;;;;;10.10;99.90;;;;;;4938246;29;19926;-87
2023/01/12 09:14:11;;;;;;;;;;;9.90;99.90;;;;;;4923140;29;20052;-88
2023/01/12 09:16:38;;;;;;;;;;;9.90;99.90;;;;;;4922622;29;20029;-90
2023/01/12 09:19:10;;;;;;;;;;;9.90;99.90;;;;;;4938337;29;20055;-89
2023/01/12 09:21:37;;;;;;;;;;;10.10;99.90;;;;;;4922601;29;20422;-90
2023/01/12 09:24:06;;;;;;;;;;;10.00;99.90;;;;;;4923756;29;20349;-91
2023/01/12 09:26:36;;;;;;;;;;;10.00;99.90;;;;;;4923520;29;19934;-89
2023/01/12 09:29:03;;;;;;;;;;;10.00;99.90;;;;;;4924204;29;19941;-89
2023/01/12 09:31:29;;;;;;;;;;;10.00;99.90;;;;;;4923843;29;19934;-89
2023/01/12 09:33:55;;;;;;;;;;;10.00;99.90;;;;;;4941274;29;19927;-88
2023/01/12 09:36:25;;;;;;;;;;;10.10;99.90;;;;;;4923452;29;19926;-88
2023/01/12 09:38:51;;;;;;;;;;;10.10;99.90;;;;;;4923563;29;19933;-89
2023/01/12 09:46:59;;;;;;;;;;;10.20;99.90;;;;;;4938505;29;19939;-90
2023/01/12 09:49:37;;;;;;;;;;;10.30;99.90;;;;;;4938376;29;19927;-90
2023/01/12 09:52:09;;;;;;;;;;;10.20;99.90;;;;;;4938192;29;19933;-87
2023/01/12 09:54:40;;;;;;;;;;;10.30;99.90;;;;;;4940680;29;19930;-88
2023/01/12 09:57:17;;;;;;;;;;;10.30;99.90;;;;;;4942411;29;20017;-87
2023/01/12 09:59:51;;;;;;;;;;;10.20;99.90;;;;;;4941432;29;19926;-87
2023/01/12 10:02:17;;;;;;;;;;;10.30;99.90;;;;;;4941102;29;19973;-88
2023/01/12 10:04:43;;;;;;;;;;;10.30;99.90;;;;;;4941476;29;20045;-88
2023/01/12 10:07:14;;;;;;;;;;;10.30;99.90;;;;;;4925398;29;19933;-89
2023/01/12 10:09:41;;;;;;;;;;;10.30;99.90;;;;;;4941448;29;19930;-89
2023/01/12 10:12:19;;;;;;;;;;;10.40;99.90;;;;;;4941970;29;20310;-88
2023/01/12 10:15:03;;;;;;;;;;;10.30;99.90;;;;;;4942143;29;19927;-88
2023/01/12 10:17:41;;;;;;;;;;;10.30;99.90;;;;;;4941707;29;19937;-89
2023/01/12 10:20:07;;;;;;;;;;;10.40;99.90;;;;;;4941288;29;19931;-90
2023/01/12 10:22:38;;;;;;;;;;;10.50;99.90;;;;;;4941246;29;19933;-88
2023/01/12 10:25:15;;;;;;;;;;;10.50;99.90;;;;;;4925790;29;20022;-89
2023/01/12 10:27:42;;;;;;;;;;;10.50;99.90;;;;;;4941097;29;19926;-87
2023/01/12 10:30:31;;;;;;;;;;;10.50;99.90;;;;;;4940768;29;20050;-88
2023/01/12 10:33:08;;;;;;;;;;;10.50;99.90;;;;;;4921483;29;20338;-87
2023/01/12 10:35:34;;;;;;;;;;;10.50;99.90;;;;;;4925441;29;20258;-87
2023/01/12 10:37:59;;;;;;;;;;;10.50;99.90;;;;;;4926481;29;20010;-87
2023/01/12 10:40:27;;;;;;;;;;;10.60;99.90;;;;;;4940453;29;20331;-86
2023/01/12 10:43:22;;;;;;;;;;;10.60;99.90;;;;;;4941043;29;19926;-89
2023/01/12 10:46:00;;;;;;;;;;;10.60;99.90;;;;;;4941869;29;20041;-90
2023/01/12 10:48:26;;;;;;;;;;;10.60;99.90;;;;;;4941463;29;20005;-88
2023/01/12 10:50:56;;;;;;;;;;;10.50;99.90;;;;;;4941104;29;20397;-88
2023/01/12 10:53:26;;;;;;;;;;;10.50;99.90;;;;;;4941393;29;19930;-87
2023/01/12 10:55:52;;;;;;;;;;;10.50;99.90;;;;;;4940545;29;19933;-87
2023/01/12 10:58:21;;;;;;;;;;;10.50;99.90;;;;;;4940505;29;20337;-88
2023/01/12 11:00:48;;;;;;;;;;;10.60;99.90;;;;;;4940615;29;20342;-87
2023/01/12 11:03:41;;;;;;;;;;;10.60;99.90;;;;;;4940482;29;19926;-89
2023/01/12 11:06:14;;;;;;;;;;;10.60;99.90;;;;;;4937051;29;20409;-88
2023/01/12 11:08:39;;;;;;;;;;;10.60;99.90;;;;;;4924200;29;19994;-88
2023/01/12 11:11:21;;;;;;;;;;;10.70;99.90;;;;;;4924950;29;19966;-87
2023/01/12 11:13:47;;;;;;;;;;;10.70;99.90;;;;;;4940891;29;19939;-88
2023/01/12 11:16:18;;;;;;;;;;;10.90;99.90;;;;;;4924960;29;19990;-89
2023/01/12 11:18:46;;;;;;;;;;;10.80;99.90;;;;;;4940434;29;19934;-88
2023/01/12 11:21:13;;;;;;;;;;;10.90;99.90;;;;;;4924414;29;19926;-88
2023/01/12 11:23:49;;;;;;;;;;;10.90;99.90;;;;;;4940235;29;20025;-88
2023/01/12 11:26:20;;;;;;;;;;;10.90;99.90;;;;;;4956552;29;19933;-88
2023/01/12 11:28:48;;;;;;;;;;;10.90;99.90;;;;;;4940528;29;19949;-87
2023/01/12 11:31:17;;;;;;;;;;;11.00;99.90;;;;;;4924030;29;19926;-86
2023/01/12 11:33:48;;;;;;;;;;;11.00;99.90;;;;;;4939692;29;19926;-87
2023/01/12 11:36:16;;;;;;;;;;;11.00;99.90;;;;;;4939952;29;19927;-88
2023/01/12 11:38:49;;;;;;;;;;;11.00;99.90;;;;;;4924531;29;19977;-90
2023/01/12 11:41:24;;;;;;;;;;;11.10;99.90;;;;;;4924083;29;19927;-88
2023/01/12 11:44:08;;;;;;;;;;;11.10;99.90;;;;;;4939802;29;19972;-88
2023/01/12 11:46:37;;;;;;;;;;;11.20;99.90;;;;;;4939603;29;20460;-87
2023/01/12 11:49:09;;;;;;;;;;;11.20;99.90;;;;;;4940177;29;19933;-87
2023/01/12 11:51:35;;;;;;;;;;;11.30;99.90;;;;;;4940814;29;20279;-87
2023/01/12 11:54:00;;;;;;;;;;;11.30;99.90;;;;;;4940456;29;19934;-87
2023/01/12 11:56:55;;;;;;;;;;;11.40;99.90;;;;;;4939739;29;19931;-88
2023/01/12 11:59:25;;;;;;;;;;;11.40;99.90;;;;;;4915665;29;19984;-87
2023/01/12 12:01:58;;;;;;;;;;;11.50;99.90;;;;;;4923743;29;19927;-88
2023/01/12 12:04:31;;;;;;;;;;;11.50;99.90;;;;;;4940427;29;19927;-87
2023/01/12 12:07:16;;;;;;;;;;;11.40;99.90;;;;;;4940278;29;19937;-88
2023/01/12 12:09:54;;;;;;;;;;;11.40;99.90;;;;;;4939461;29;20284;-90
2023/01/12 12:12:42;;;;;;;;;;;11.40;99.90;;;;;;4939164;29;19926;-88
2023/01/12 12:15:24;;;;;;;;;;;11.40;99.90;;;;;;4939451;29;19974;-88
2023/01/12 12:18:19;;;;;;;;;;;11.40;99.90;;;;;;4924239;29;19982;-88
2023/01/12 12:20:48;;;;;;;;;;;11.50;99.90;;;;;;4915105;29;19975;-86
2023/01/12 12:23:32;;;;;;;;;;;11.40;99.90;;;;;;4939223;29;19927;-89
2023/01/12 12:26:24;;;;;;;;;;;11.50;99.90;;;;;;4939826;29;19962;-88
2023/01/12 12:29:08;;;;;;;;;;;11.40;99.90;;;;;;4936611;29;19934;-87
2023/01/12 12:31:49;;;;;;;;;;;11.30;99.90;;;;;;4938460;29;19934;-88
2023/01/12 12:34:36;;;;;;;;;;;11.30;99.90;;;;;;4938495;29;20120;-87
2023/01/12 12:37:19;;;;;;;;;;;11.20;99.90;;;;;;4924014;29;20253;-88
2023/01/12 12:39:45;;;;;;;;;;;11.20;99.90;;;;;;4939126;29;20339;-89
2023/01/12 12:45:20;;;;;;;;;;;11.20;99.90;;;;;;4938675;29;19926;-89
2023/01/12 12:47:46;;;;;;;;;;;11.20;99.90;;;;;;4938447;29;19937;-88
2023/01/12 12:50:17;;;;;;;;;;;11.20;99.90;;;;;;4938779;29;19952;-87
2023/01/12 12:52:47;;;;;;;;;;;11.20;99.90;;;;;;4938646;29;19974;-89
2023/01/12 12:55:13;;;;;;;;;;;11.20;99.90;;;;;;4938833;29;19974;-88
2023/01/12 12:57:58;;;;;;;;;;;11.20;99.90;;;;;;4922758;29;19981;-91
2023/01/12 13:00:29;;;;;;;;;;;11.20;99.90;;;;;;4922504;29;19933;-88
2023/01/12 13:02:57;;;;;;;;;;;11.20;99.90;;;;;;4939108;29;19926;-88
2023/01/12 13:05:41;;;;;;;;;;;11.10;99.90;;;;;;4938169;29;19934;-89
2023/01/12 13:08:19;;;;;;;;;;;11.10;99.90;;;;;;4938018;29;19934;-89
2023/01/12 13:10:53;;;;;;;;;;;11.10;99.90;;;;;;4938566;29;19977;-89
2023/01/12 13:13:25;;;;;;;;;;;11.00;99.90;;;;;;4938764;29;19926;-89
2023/01/12 13:16:10;;;;;;;;;;;11.00;99.90;;;;;;4922543;29;19952;-88
2023/01/12 13:18:41;;;;;;;;;;;11.00;99.90;;;;;;4938575;29;19931;-88
2023/01/12 13:21:26;;;;;;;;;;;11.00;99.90;;;;;;4938147;29;19930;-87
2023/01/12 13:23:53;;;;;;;;;;;11.00;99.90;;;;;;4954074;29;19933;-87
2023/01/12 13:26:22;;;;;;;;;;;11.00;99.90;;;;;;4938303;29;19926;-87
2023/01/12 13:28:48;;;;;;;;;;;11.00;99.90;;;;;;4937698;29;20393;-88
2023/01/12 13:31:35;;;;;;;;;;;11.00;99.90;;;;;;4937713;29;19926;-87
2023/01/12 13:34:20;;;;;;;;;;;11.00;99.90;;;;;;4922536;29;19927;-88
2023/01/12 13:36:59;;;;;;;;;;;11.00;99.90;;;;;;4939032;29;19927;-89
2023/01/12 13:39:28;;;;;;;;;;;11.00;99.90;;;;;;4938227;29;19978;-89
2023/01/12 13:44:41;;;;;;;;;;;11.00;99.90;;;;;;4924991;29;19996;-88
2023/01/12 13:47:14;;;;;;;;;;;11.00;99.90;;;;;;4938848;29;20354;-88
2023/01/12 13:49:45;;;;;;;;;;;9.80;99.90;;;;;;4938287;29;19930;-88
2023/01/12 13:52:25;;;;;;;;;;;11.00;99.90;;;;;;4922040;29;19930;-88
2023/01/12 13:54:51;;;;;;;;;;;11.00;99.90;;;;;;4938373;29;19934;-88
2023/01/12 13:57:18;;;;;;;;;;;11.00;99.90;;;;;;4922185;29;19997;-88
2023/01/12 14:00:16;;;;;;;;;;;11.00;99.90;;;;;;4937722;29;20025;-89
2023/01/12 14:02:42;;;;;;;;;;;11.00;99.90;;;;;;4911109;29;19955;-89
2023/01/12 14:05:10;;;;;;;;;;;11.00;99.90;;;;;;4937941;29;19926;-88
2023/01/12 14:08:05;;;;;;;;;;;10.90;99.90;;;;;;4937826;29;19927;-89
2023/01/12 14:10:31;;;;;;;;;;;10.90;99.90;;;;;;4925193;29;19926;-88
2023/01/12 14:13:02;;;;;;;;;;;10.90;99.90;;;;;;4937904;29;19930;-88
2023/01/12 14:18:41;;;;;;;;;;;10.90;99.90;;;;;;4940100;29;19927;-88
2023/01/12 14:21:26;;;;;;;;;;;10.90;99.90;;;;;;4924640;29;19931;-88
2023/01/12 14:23:52;;;;;;;;;;;10.90;99.90;;;;;;4940343;29;19977;-89
2023/01/12 14:26:21;;;;;;;;;;;10.90;99.90;;;;;;4937870;29;19933;-87
2023/01/12 14:28:49;;;;;;;;;;;10.90;99.90;;;;;;4937670;29;19982;-87
2023/01/12 14:31:17;;;;;;;;;;;10.90;99.90;;;;;;4937271;29;19938;-87
2023/01/12 14:33:47;;;;;;;;;;;10.90;99.90;;;;;;4921696;29;20422;-89
2023/01/12 14:36:16;;;;;;;;;;;10.80;99.90;;;;;;4937517;29;19927;-89
2023/01/12 14:38:42;;;;;;;;;;;10.80;99.90;;;;;;4921654;29;19926;-89
2023/01/12 14:46:23;;;;;;;;;;;10.70;99.90;;;;;;4939561;29;19973;-87
2023/01/12 14:46:58;;;;;;;;;;;10.70;99.90;;;;;;4942254;29;20279;-88
2023/01/12 14:49:23;;;;;;;;;;;10.70;99.90;;;;;;4942807;29;19934;-87
2023/01/12 14:51:53;;;;;;;;;;;10.60;99.90;;;;;;4941141;29;19927;-87
2023/01/12 14:54:19;;;;;;;;;;;10.60;99.90;;;;;;4941567;29;19926;-88
2023/01/12 14:56:55;;;;;;;;;;;10.60;99.90;;;;;;4957548;29;19966;-88
2023/01/12 14:59:27;;;;;;;;;;;10.50;99.90;;;;;;4940650;29;19927;-87
2023/01/12 15:02:10;;;;;;;;;;;10.50;99.90;;;;;;4941446;29;20043;-89
2023/01/12 15:04:35;;;;;;;;;;;10.50;99.90;;;;;;4941183;29;20018;-89
2023/01/12 15:07:04;;;;;;;;;;;10.40;99.90;;;;;;4941072;29;20357;-87
2023/01/12 15:09:32;;;;;;;;;;;10.40;99.90;;;;;;4941228;29;20074;-87
2023/01/12 15:12:17;;;;;;;;;;;10.40;99.90;;;;;;4940378;29;19933;-89
2023/01/12 15:14:43;;;;;;;;;;;10.30;99.90;;;;;;4939618;29;19927;-88
2023/01/12 15:25:37;;;;;;;;;;;10.30;99.90;;;;;;4940953;29;19926;-88
2023/01/12 15:28:06;;;;;;;;;;;10.30;99.90;;;;;;4940956;29;19926;-87
2023/01/12 15:30:37;;;;;;;;;;;10.30;99.90;;;;;;4940043;29;19934;-88
2023/01/12 15:33:03;;;;;;;;;;;10.20;99.90;;;;;;4923836;29;19927;-87